Terminal Aerodrome Forecast
Issued by NWS Anchorage, AK

Home | Current Version | Previous Version | Text Only | Print | Product List | Glossary On
Versions: 1 2 3 4 5 6 7 8 9 10 11 12 13 14 15 16 17 18 19
000
FTAK31 PANC 022357 AAA
TAFANC
TAF AMD
PANC 022357Z 0300/0406 16015G25KT P6SM VCSH SCT060 BKN100
     FM031200 02005KT P6SM SCT050 BKN080
     FM040000 16015G25KT P6SM SCT060 BKN100=

USA.gov is the U.S. government's official web portal to all federal, state and local government web resources and services.